createdAt,value
2018-03-26T00:00:46.527Z,4.79
2018-03-26T00:03:49.703Z,4.77
2018-03-26T00:06:52.833Z,4.85
2018-03-26T00:09:56.031Z,4.75
2018-03-26T00:12:59.461Z,4.81
2018-03-26T00:16:02.604Z,4.74
2018-03-26T00:19:05.750Z,4.68
2018-03-26T00:22:08.901Z,4.68
2018-03-26T00:25:12.022Z,4.62
2018-03-26T00:28:15.163Z,4.65
2018-03-26T00:31:18.291Z,4.69
2018-03-26T00:34:21.421Z,4.70
2018-03-26T00:37:24.565Z,4.73
2018-03-26T00:40:27.762Z,4.65
2018-03-26T00:43:30.890Z,4.70
2018-03-26T00:46:34.049Z,4.73
2018-03-26T00:49:37.222Z,4.79
2018-03-26T00:52:40.356Z,4.79
2018-03-26T00:55:43.538Z,4.89
2018-03-26T00:58:46.674Z,4.93
2018-03-26T01:01:49.815Z,4.98
2018-03-26T01:04:52.949Z,5.02
2018-03-26T01:07:56.094Z,5.00
2018-03-26T01:10:59.248Z,5.02
2018-03-26T01:14:02.397Z,4.98
2018-03-26T01:17:05.594Z,5.02
2018-03-26T01:20:08.713Z,5.09
2018-03-26T01:23:11.883Z,5.14
2018-03-26T01:26:15.025Z,5.04
2018-03-26T01:29:18.177Z,5.07
2018-03-26T01:32:21.305Z,5.09
2018-03-26T01:35:24.474Z,5.10
2018-03-26T01:38:27.647Z,5.12
2018-03-26T01:41:30.774Z,5.19
2018-03-26T01:44:33.912Z,5.20
2018-03-26T01:47:37.081Z,5.21
2018-03-26T01:50:40.220Z,5.34
2018-03-26T01:53:43.405Z,5.39
2018-03-26T01:56:46.530Z,5.49
2018-03-26T01:59:49.698Z,5.52
2018-03-26T02:02:52.837Z,5.28
2018-03-26T02:05:56.025Z,5.27
2018-03-26T02:08:59.229Z,5.26
2018-03-26T02:12:02.427Z,5.33
2018-03-26T02:15:05.587Z,5.40
2018-03-26T02:18:08.772Z,5.36
2018-03-26T02:21:11.906Z,5.43
2018-03-26T02:24:15.061Z,5.38
2018-03-26T02:27:18.266Z,5.14
2018-03-26T02:30:21.416Z,5.18
2018-03-26T02:33:24.552Z,5.19
2018-03-26T02:36:27.690Z,5.14
2018-03-26T02:39:30.841Z,5.25
2018-03-26T02:42:33.991Z,5.07
2018-03-26T02:45:37.128Z,5.04
2018-03-26T02:48:40.289Z,5.04
2018-03-26T02:51:43.416Z,5.06
2018-03-26T02:54:46.545Z,5.01
2018-03-26T02:57:49.690Z,5.01
2018-03-26T03:00:52.822Z,5.03
2018-03-26T03:03:55.959Z,4.97
2018-03-26T03:06:59.118Z,4.99
2018-03-26T03:10:02.258Z,5.06
2018-03-26T03:13:05.398Z,5.12
2018-03-26T03:16:08.739Z,5.16
2018-03-26T03:19:11.900Z,5.12
2018-03-26T03:22:15.045Z,5.20
2018-03-26T03:25:18.183Z,5.26
2018-03-26T03:28:21.314Z,5.24
2018-03-26T03:31:24.453Z,5.20
2018-03-26T03:34:28.170Z,5.27
2018-03-26T03:37:31.374Z,5.33
2018-03-26T03:40:34.539Z,5.35
2018-03-26T03:43:37.679Z,5.37
2018-03-26T03:46:40.850Z,5.24
2018-03-26T03:49:44.006Z,5.22
2018-03-26T03:52:47.144Z,5.25
2018-03-26T03:55:50.302Z,5.28
2018-03-26T03:58:53.459Z,5.23
2018-03-26T04:01:56.602Z,5.18
2018-03-26T04:04:59.765Z,5.18
2018-03-26T04:08:03.191Z,5.24
2018-03-26T04:11:06.329Z,5.32
2018-03-26T04:14:09.494Z,5.31
2018-03-26T04:17:12.648Z,5.30
2018-03-26T04:20:17.687Z,5.34
2018-03-26T04:23:20.819Z,5.38
2018-03-26T04:26:23.960Z,5.46
2018-03-26T04:29:27.098Z,5.45
2018-03-26T04:32:30.273Z,5.44
2018-03-26T04:35:33.402Z,5.41
2018-03-26T04:38:36.537Z,5.46
2018-03-26T04:41:39.723Z,5.44
2018-03-26T04:44:42.890Z,5.52
2018-03-26T04:47:46.092Z,5.56
2018-03-26T04:50:49.271Z,5.55
2018-03-26T04:53:52.420Z,5.57
2018-03-26T04:56:55.558Z,5.63
2018-03-26T04:59:58.747Z,5.67
2018-03-26T05:03:02.007Z,5.70
2018-03-26T05:06:05.126Z,5.75
2018-03-26T05:09:08.280Z,5.77
2018-03-26T05:12:11.489Z,5.78
2018-03-26T05:15:14.661Z,5.80
2018-03-26T05:18:17.833Z,5.80
2018-03-26T05:21:20.946Z,5.91
2018-03-26T05:24:24.068Z,5.80
2018-03-26T05:27:27.198Z,5.71
2018-03-26T05:30:30.381Z,5.59
2018-03-26T05:33:33.518Z,5.61
2018-03-26T05:36:36.664Z,5.58
2018-03-26T05:39:39.833Z,5.68
2018-03-26T05:42:42.976Z,5.70
2018-03-26T05:45:46.154Z,5.71
2018-03-26T05:48:49.302Z,5.80
2018-03-26T05:51:52.447Z,5.77
2018-03-26T05:54:55.702Z,5.89
2018-03-26T05:57:58.898Z,5.79
2018-03-26T06:01:02.067Z,5.83
2018-03-26T06:04:05.296Z,5.92
2018-03-26T06:07:08.418Z,5.86
2018-03-26T06:10:11.616Z,5.84
2018-03-26T06:13:14.807Z,5.90
2018-03-26T06:16:17.985Z,5.90
2018-03-26T06:19:21.190Z,5.95
2018-03-26T06:22:24.366Z,6.05
2018-03-26T06:25:27.667Z,6.01
2018-03-26T06:28:30.889Z,6.04
2018-03-26T06:31:34.078Z,6.05
2018-03-26T06:34:37.276Z,6.10
2018-03-26T06:37:40.472Z,6.15
2018-03-26T06:40:43.723Z,6.24
2018-03-26T06:43:46.963Z,6.26
2018-03-26T06:46:50.156Z,6.28
2018-03-26T06:49:53.401Z,6.34
2018-03-26T06:52:56.551Z,6.44
2018-03-26T06:55:59.750Z,6.41
2018-03-26T06:59:02.947Z,6.31
2018-03-26T07:02:06.180Z,6.40
2018-03-26T07:05:09.370Z,6.42
2018-03-26T07:08:12.558Z,6.47
2018-03-26T07:11:15.811Z,6.50
2018-03-26T07:14:19.010Z,6.53
2018-03-26T07:17:22.230Z,6.58
2018-03-26T07:20:25.470Z,6.63
2018-03-26T07:23:29.111Z,6.63
2018-03-26T07:26:32.426Z,6.69
2018-03-26T07:29:35.687Z,6.82
2018-03-26T07:32:38.931Z,6.93
2018-03-26T07:35:42.210Z,7.08
2018-03-26T07:38:45.466Z,7.12
2018-03-26T07:41:48.654Z,7.12
2018-03-26T07:44:51.822Z,7.10
2018-03-26T07:47:55.016Z,7.16
2018-03-26T07:50:58.188Z,7.17
2018-03-26T07:54:01.363Z,7.22
2018-03-26T07:57:04.539Z,7.27
2018-03-26T08:00:07.766Z,7.34
2018-03-26T08:03:10.905Z,7.39
2018-03-26T08:06:14.098Z,7.46
2018-03-26T08:09:17.234Z,7.59
2018-03-26T08:12:20.390Z,7.64
2018-03-26T08:15:23.589Z,7.71
2018-03-26T08:18:26.773Z,7.79
2018-03-26T08:21:30.087Z,7.79
2018-03-26T08:24:33.276Z,7.85
2018-03-26T08:27:36.423Z,7.86
2018-03-26T08:30:39.595Z,7.90
2018-03-26T08:33:42.794Z,7.94
2018-03-26T08:36:45.968Z,8.03
2018-03-26T08:39:49.120Z,8.09
2018-03-26T08:42:52.295Z,8.14
2018-03-26T08:45:55.482Z,8.18
2018-03-26T08:48:58.895Z,8.26
2018-03-26T08:52:02.148Z,8.27
2018-03-26T08:55:05.357Z,8.30
2018-03-26T08:58:08.551Z,8.36
2018-03-26T09:01:11.804Z,8.42
2018-03-26T09:04:15.081Z,8.37
2018-03-26T09:07:18.233Z,8.46
2018-03-26T09:10:21.453Z,8.56
2018-03-26T09:13:24.657Z,8.63
2018-03-26T09:16:27.756Z,8.68
2018-03-26T09:19:38.268Z,8.58
2018-03-26T09:22:41.695Z,8.71
2018-03-26T09:25:45.169Z,8.76
2018-03-26T09:28:48.596Z,8.84
2018-03-26T09:31:52.127Z,8.89
2018-03-26T09:34:55.735Z,9.03
2018-03-26T09:37:59.422Z,9.12
2018-03-26T09:41:02.912Z,9.07
2018-03-26T09:44:06.254Z,8.98
2018-03-26T09:47:09.761Z,8.98
2018-03-26T09:50:13.092Z,9.03
2018-03-26T09:53:16.395Z,9.15
2018-03-26T09:56:21.613Z,9.21
2018-03-26T09:59:24.987Z,9.32
2018-03-26T10:02:28.437Z,9.41
2018-03-26T10:05:31.875Z,9.32
2018-03-26T10:08:35.316Z,9.22
2018-03-26T10:11:38.661Z,9.23
2018-03-26T10:14:42.024Z,9.29
2018-03-26T10:17:47.221Z,9.36
2018-03-26T10:20:51.893Z,9.31
2018-03-26T10:23:55.584Z,9.43
2018-03-26T10:26:59.293Z,9.50
2018-03-26T10:30:02.631Z,9.53
2018-03-26T10:33:05.855Z,9.61
2018-03-26T10:36:09.932Z,9.57
2018-03-26T10:39:13.075Z,9.43
2018-03-26T10:42:16.226Z,9.37
2018-03-26T10:45:20.839Z,9.33
2018-03-26T10:48:24.992Z,9.30
2018-03-26T10:51:28.124Z,9.40
2018-03-26T10:54:31.865Z,9.56
2018-03-26T10:57:35.000Z,9.36
2018-03-26T11:00:38.657Z,9.38
2018-03-26T11:03:41.806Z,9.44
2018-03-26T11:06:44.964Z,9.46
2018-03-26T11:09:48.116Z,9.37
2018-03-26T11:12:51.259Z,9.32
2018-03-26T11:15:54.425Z,9.33
2018-03-26T11:18:57.539Z,9.36
2018-03-26T11:22:01.094Z,9.28
2018-03-26T11:25:05.890Z,9.31
2018-03-26T11:28:09.189Z,9.39
2018-03-26T11:31:12.446Z,9.42
2018-03-26T11:34:15.580Z,9.40
2018-03-26T11:37:19.373Z,9.44
2018-03-26T11:40:22.492Z,9.40
2018-03-26T11:43:25.705Z,9.23
2018-03-26T11:46:28.825Z,9.26
2018-03-26T11:49:31.971Z,9.27
2018-03-26T11:52:35.960Z,9.31
2018-03-26T11:55:39.091Z,9.36
2018-03-26T11:58:42.255Z,9.35
2018-03-26T12:01:45.503Z,9.38
2018-03-26T12:04:48.638Z,9.35
2018-03-26T12:07:51.800Z,9.31
2018-03-26T12:10:54.976Z,9.42
2018-03-26T12:13:58.089Z,9.46
2018-03-26T12:17:01.242Z,9.47
2018-03-26T12:20:14.360Z,9.50
2018-03-26T12:23:26.557Z,9.56
2018-03-26T12:26:29.956Z,9.55
2018-03-26T12:30:38.025Z,9.62
2018-03-26T12:33:50.189Z,9.58
2018-03-26T12:36:53.307Z,9.61
2018-03-26T12:39:56.462Z,9.71
2018-03-26T12:42:59.638Z,9.86
2018-03-26T12:46:42.276Z,9.78
2018-03-26T12:49:45.389Z,9.79
2018-03-26T12:52:52.991Z,9.74
2018-03-26T12:55:57.397Z,9.68
2018-03-26T12:59:00.850Z,9.66
2018-03-26T13:02:27.209Z,9.61
2018-03-26T13:05:30.649Z,9.51
2018-03-26T13:08:34.097Z,9.63
2018-03-26T13:11:37.531Z,9.74
2018-03-26T13:14:40.843Z,9.82
2018-03-26T13:17:44.393Z,9.83
2018-03-26T13:20:47.719Z,9.84
2018-03-26T13:23:51.052Z,9.79
2018-03-26T13:26:54.533Z,9.76
2018-03-26T13:29:58.002Z,9.61
2018-03-26T13:33:02.261Z,9.68
2018-03-26T13:36:05.615Z,9.74
2018-03-26T13:39:09.224Z,9.75
2018-03-26T13:42:12.415Z,9.75
2018-03-26T13:45:15.532Z,9.77
2018-03-26T13:48:20.146Z,9.81
2018-03-26T13:51:26.399Z,9.82
2018-03-26T13:54:31.184Z,9.95
2018-03-26T13:57:35.293Z,9.93
2018-03-26T14:00:38.435Z,9.90
2018-03-26T14:03:42.287Z,9.99
2018-03-26T14:07:01.621Z,10.07
2018-03-26T14:12:25.050Z,10.04
2018-03-26T14:17:57.249Z,10.17
2018-03-26T14:21:01.615Z,10.34
2018-03-26T14:24:05.166Z,10.70
2018-03-26T14:27:08.605Z,10.82
2018-03-26T14:30:12.001Z,11.12
2018-03-26T14:33:15.438Z,11.17
2018-03-26T14:36:18.740Z,11.26
2018-03-26T14:39:23.263Z,11.33
2018-03-26T14:42:27.765Z,11.19
2018-03-26T14:45:31.144Z,11.32
2018-03-26T14:48:35.958Z,11.53
2018-03-26T14:51:40.498Z,11.56
2018-03-26T14:54:44.940Z,11.41
2018-03-26T14:57:48.378Z,11.38
2018-03-26T15:00:51.787Z,11.72
2018-03-26T15:03:59.351Z,11.81
2018-03-26T15:07:03.792Z,11.97
2018-03-26T15:10:07.271Z,12.19
2018-03-26T15:13:10.679Z,12.37
2018-03-26T15:16:14.258Z,12.39
2018-03-26T15:19:17.718Z,12.38
2018-03-26T15:22:21.165Z,12.42
2018-03-26T15:25:24.618Z,12.58
2018-03-26T15:28:29.147Z,13.13
2018-03-26T15:31:32.472Z,12.54
2018-03-26T15:34:35.923Z,12.44
2018-03-26T15:37:39.561Z,12.60
2018-03-26T15:40:42.791Z,12.66
2018-03-26T15:43:46.921Z,12.50
2018-03-26T15:46:51.260Z,12.31
2018-03-26T15:49:56.050Z,12.29
2018-03-26T15:52:59.586Z,12.25
2018-03-26T15:56:04.209Z,11.98
2018-03-26T15:59:09.786Z,12.03
2018-03-26T16:02:13.370Z,11.76
2018-03-26T16:05:22.999Z,11.74
2018-03-26T16:08:27.879Z,11.61
2018-03-26T16:11:32.279Z,11.63
2018-03-26T16:14:36.902Z,11.71
2018-03-26T16:17:42.284Z,11.66
2018-03-26T16:20:46.968Z,11.59
2018-03-26T16:23:55.883Z,11.49
2018-03-26T16:26:59.435Z,11.37
2018-03-26T16:30:03.103Z,11.35
2018-03-26T16:33:06.750Z,11.21
2018-03-26T16:36:10.367Z,11.31
2018-03-26T16:39:13.982Z,11.18
2018-03-26T16:42:21.516Z,11.14
2018-03-26T16:45:27.049Z,10.99
2018-03-26T16:48:30.604Z,10.83
2018-03-26T16:51:34.146Z,10.98
2018-03-26T16:54:39.706Z,10.96
2018-03-26T16:57:43.247Z,10.97
2018-03-26T17:00:46.814Z,11.01
2018-03-26T17:03:50.507Z,10.86
2018-03-26T17:06:54.080Z,10.80
2018-03-26T17:10:13.541Z,10.80
2018-03-26T17:13:17.047Z,10.75
2018-03-26T17:16:20.727Z,10.72
2018-03-26T17:19:24.951Z,10.60
2018-03-26T17:22:31.033Z,10.59
2018-03-26T17:25:46.000Z,10.57
2018-03-26T17:28:56.693Z,10.62
2018-03-26T17:32:00.779Z,10.51
2018-03-26T17:35:04.272Z,10.52
2018-03-26T17:40:05.393Z,10.52
2018-03-26T17:43:09.891Z,10.37
2018-03-26T17:46:13.408Z,10.19
2018-03-26T17:49:16.976Z,10.23
2018-03-26T17:52:22.535Z,10.18
2018-03-26T17:55:28.080Z,10.14
2018-03-26T17:58:33.448Z,10.11
2018-03-26T18:01:36.954Z,10.04
2018-03-26T18:04:40.514Z,10.03
2018-03-26T18:07:44.174Z,9.99
2018-03-26T18:10:48.860Z,10.02
2018-03-26T18:13:53.555Z,10.03
2018-03-26T18:16:57.391Z,10.02
2018-03-26T18:20:01.322Z,9.94
2018-03-26T18:23:05.069Z,9.93
2018-03-26T18:26:17.047Z,9.94
2018-03-26T18:29:20.656Z,9.98
2018-03-26T18:32:24.145Z,9.97
2018-03-26T18:35:27.646Z,9.98
2018-03-26T18:38:31.730Z,9.79
2018-03-26T18:41:36.212Z,9.86
2018-03-26T18:44:39.781Z,9.82
2018-03-26T18:47:44.262Z,9.79
2018-03-26T18:50:47.877Z,9.54
2018-03-26T18:53:52.342Z,9.42
2018-03-26T18:56:57.886Z,9.21
2018-03-26T19:00:03.426Z,8.95
2018-03-26T19:03:06.922Z,8.72
2018-03-26T19:06:11.865Z,8.65
2018-03-26T19:09:15.858Z,8.31
2018-03-26T19:12:19.464Z,8.20
2018-03-26T19:15:23.333Z,8.13
2018-03-26T19:18:27.008Z,8.19
2018-03-26T19:21:50.488Z,8.28
2018-03-26T19:24:56.013Z,8.36
2018-03-26T19:28:00.772Z,8.34
2018-03-26T19:31:04.069Z,8.31
2018-03-26T19:34:07.330Z,8.23
2018-03-26T19:37:10.634Z,8.21
2018-03-26T19:40:13.915Z,8.28
2018-03-26T19:43:17.123Z,8.11
2018-03-26T19:46:27.415Z,8.15
2018-03-26T19:49:30.743Z,8.15
2018-03-26T19:52:33.882Z,8.09
2018-03-26T19:55:37.157Z,8.14
2018-03-26T19:58:40.371Z,8.17
2018-03-26T20:01:43.618Z,8.12
2018-03-26T20:04:46.819Z,8.18
2018-03-26T20:07:50.061Z,8.30
2018-03-26T20:10:53.410Z,8.36
2018-03-26T20:13:56.656Z,8.45
2018-03-26T20:17:00.053Z,8.35
2018-03-26T20:20:03.328Z,8.19
2018-03-26T20:23:06.519Z,8.16
2018-03-26T20:26:09.717Z,8.04
2018-03-26T20:29:12.918Z,8.03
2018-03-26T20:32:16.397Z,7.96
2018-03-26T20:35:19.728Z,7.95
2018-03-26T20:38:23.121Z,7.89
2018-03-26T20:41:26.310Z,7.85
2018-03-26T20:44:29.608Z,7.79
2018-03-26T20:47:32.915Z,7.79
2018-03-26T20:50:36.186Z,7.71
2018-03-26T20:53:39.372Z,7.61
2018-03-26T20:56:42.578Z,7.51
2018-03-26T20:59:45.788Z,7.53
2018-03-26T21:02:48.977Z,7.62
2018-03-26T21:05:52.153Z,7.59
2018-03-26T21:08:55.342Z,7.52
2018-03-26T21:11:58.532Z,7.44
2018-03-26T21:15:01.743Z,7.36
2018-03-26T21:18:05.143Z,7.28
2018-03-26T21:21:09.088Z,7.28
2018-03-26T21:24:13.023Z,7.24
2018-03-26T21:27:17.322Z,7.19
2018-03-26T21:30:20.665Z,7.15
2018-03-26T21:33:23.892Z,7.07
2018-03-26T21:36:27.238Z,6.97
2018-03-26T21:39:30.558Z,6.94
2018-03-26T21:42:33.803Z,6.93
2018-03-26T21:45:37.070Z,6.87
2018-03-26T21:48:40.346Z,6.79
2018-03-26T21:51:43.594Z,6.76
2018-03-26T21:54:47.736Z,6.66
2018-03-26T21:57:51.012Z,6.68
2018-03-26T22:00:54.310Z,6.66
2018-03-26T22:03:57.597Z,6.71
2018-03-26T22:07:00.794Z,6.74
2018-03-26T22:10:04.268Z,6.76
2018-03-26T22:13:07.492Z,6.71
2018-03-26T22:16:10.698Z,6.68
2018-03-26T22:19:13.959Z,6.65
2018-03-26T22:22:17.295Z,6.58
2018-03-26T22:25:20.604Z,6.60
2018-03-26T22:28:23.938Z,6.63
2018-03-26T22:31:27.164Z,6.63
2018-03-26T22:34:30.575Z,6.56
2018-03-26T22:37:33.884Z,6.47
2018-03-26T22:40:37.067Z,6.47
2018-03-26T22:43:40.377Z,6.49
2018-03-26T22:46:43.663Z,6.54
2018-03-26T22:49:46.862Z,6.61
2018-03-26T22:52:50.161Z,6.57
2018-03-26T22:55:53.364Z,6.44
2018-03-26T22:58:56.610Z,6.33
2018-03-26T23:01:59.880Z,6.30
2018-03-26T23:05:04.088Z,6.24
2018-03-26T23:08:07.371Z,6.17
2018-03-26T23:11:10.567Z,6.07
2018-03-26T23:14:13.854Z,6.04
2018-03-26T23:17:17.165Z,6.05
2018-03-26T23:20:20.459Z,6.05
2018-03-26T23:23:23.675Z,6.03
2018-03-26T23:26:26.950Z,6.05
2018-03-26T23:29:30.325Z,5.78
2018-03-26T23:32:33.496Z,5.64
2018-03-26T23:35:36.705Z,5.51
2018-03-26T23:38:39.905Z,5.46
2018-03-26T23:41:43.082Z,5.39
2018-03-26T23:44:46.317Z,5.39
2018-03-26T23:47:49.511Z,5.28
2018-03-26T23:50:52.728Z,5.18
2018-03-26T23:53:55.983Z,4.99
2018-03-26T23:56:59.210Z,4.91
